Kezdőlap
METAR-TAF:

METAR-TAF

Repülőterek :

Sparta, Wisconsin, Amerikai Egyesült Államok

földrajzi szélesség: 43-57-30N, földrajzi hosszúság: 090-44-16W, magasság: 255 m

Jelenlegi meteorológiai megfigyelések

A jelentés 42 perccel ezelõtt készült, 18:58 UTC
Észak-északkeleti szél 9 kt
Hőmérséklet 19°C
Páratartalom 46%
Légköri nyomás 1024 hPa
Látótávolság: 16.1 km
Szórványos felhőzet 4800 lábon
Szórványos felhőzet 5500 lábon

METAR: KCMY 221858Z AUTO 02009KT 10SM SCT048 SCT055 19/07 A3023 RMK AO2 SLPNO T01880070

Idő: 14:40 (19:40 UTC)


TAF: hiányzik

Meteorológiai megfigyelések és előrejelzések több, mint 4000 repülőtéren (METAR és TAF jelentéseket).

A térképen piros és sárga pontok jelzik az elérhető meteorológiai állomásokat.

Mozgassa az egeret a pont fölött, hogy megjelenjen az állomás neve.

Azután kattintson az időjárási megfigyelések és előrejelzések megtekintéséhez.

A térkép megváltoztatása: kattintson a fekete keresztel jelölt zöld gombra ráközelítéshez, a vonallal jelölt zöld gombra távolításhoz, vagy a zöld nyilakra a szomszédos térképek eléréséhez.


METAR-TAF: